Time;durP1;ratioP1;P1;durP2;ratioP2;P2;SDS_P1;SDS_P2;PMS_P1;PMS_P2;Temp;Humidity;BMP_temperature;BMP_pressure;BME280_temperature;BME280_humidity;BME280_pressure;Samples;Min_cycle;Max_cycle;Signal;HPM_P1;HPM_P2
2022/02/21 00:00:07;;;;;;;13.60;8.68;;;;;;;6.15;67.70;98372.00;5036470;28;20086;-73
2022/02/21 00:02:32;;;;;;;16.30;8.93;;;;;;;6.15;67.89;98372.00;5037851;28;20041;-69
2022/02/21 00:04:58;;;;;;;14.30;9.60;;;;;;;6.20;67.50;98356.97;5036183;28;20353;-72
2022/02/21 00:07:23;;;;;;;14.25;9.07;;;;;;;6.26;68.14;98356.50;5014442;28;20033;-71
2022/02/21 00:09:49;;;;;;;12.90;8.68;;;;;;;6.24;68.91;98357.56;5015925;28;20029;-71
2022/02/21 00:12:14;;;;;;;14.10;9.10;;;;;;;6.18;69.54;98343.38;5015550;28;20108;-74
2022/02/21 00:14:40;;;;;;;14.07;9.00;;;;;;;6.28;69.24;98340.88;5029729;28;20146;-73
2022/02/21 00:17:06;;;;;;;14.70;8.88;;;;;;;6.18;68.22;98334.81;5021609;28;20033;-75
2022/02/21 00:19:31;;;;;;;14.75;9.30;;;;;;;6.22;68.62;98321.53;5022709;28;20040;-72
2022/02/21 00:21:56;;;;;;;14.68;9.32;;;;;;;6.27;69.13;98319.41;5011761;28;20110;-73
2022/02/21 00:24:22;;;;;;;15.20;9.40;;;;;;;6.18;69.25;98321.91;5005980;28;20025;-73
2022/02/21 00:26:47;;;;;;;13.07;8.80;;;;;;;6.03;68.50;98280.09;5023292;28;20643;-73
2022/02/21 00:29:13;;;;;;;14.35;9.43;;;;;;;6.29;67.68;98314.91;5000343;28;20036;-75
2022/02/21 00:31:38;;;;;;;14.88;8.98;;;;;;;6.29;67.12;98301.19;5008014;28;20094;-73
2022/02/21 00:34:04;;;;;;;13.68;8.93;;;;;;;6.35;68.13;98306.69;5006293;28;20087;-68
2022/02/21 00:36:31;;;;;;;15.35;9.55;;;;;;;6.27;67.24;98290.19;5025773;28;20028;-74
2022/02/21 00:38:56;;;;;;;15.20;9.70;;;;;;;6.28;67.66;98295.22;5029763;28;20484;-69
2022/02/21 00:41:21;;;;;;;13.75;9.27;;;;;;;6.22;67.51;98281.97;5006637;28;20020;-72
2022/02/21 00:43:47;;;;;;;15.07;9.80;;;;;;;6.23;68.07;98274.13;5028742;28;20097;-75
2022/02/21 00:46:12;;;;;;;14.88;9.32;;;;;;;6.26;68.04;98265.28;5017183;28;20029;-72
2022/02/21 00:48:38;;;;;;;14.07;9.63;;;;;;;6.33;67.91;98281.91;5017260;28;20455;-73
2022/02/21 00:51:03;;;;;;;15.32;9.90;;;;;;;6.03;68.81;98243.97;5019969;28;20180;-73
2022/02/21 00:53:28;;;;;;;14.27;9.65;;;;;;;6.09;68.33;98274.41;5018438;28;20017;-70
2022/02/21 00:55:54;;;;;;;13.80;9.90;;;;;;;6.15;68.31;98277.34;5034103;28;20032;-75
2022/02/21 00:58:19;;;;;;;14.15;9.00;;;;;;;6.26;66.99;98258.38;5018903;28;20060;-74
2022/02/21 01:00:45;;;;;;;15.00;9.77;;;;;;;6.32;69.09;98263.03;5005568;28;20052;-71
2022/02/21 01:03:10;;;;;;;14.65;9.18;;;;;;;6.31;69.07;98260.56;5017247;28;20642;-73
2022/02/21 01:05:40;;;;;;;15.20;9.88;;;;;;;6.26;68.41;98270.47;5015919;28;20026;-74
2022/02/21 01:08:09;;;;;;;15.85;9.68;;;;;;;6.29;69.29;98276.19;5020673;28;20447;-75
2022/02/21 01:10:36;;;;;;;14.55;9.52;;;;;;;6.23;68.72;98274.13;5019154;28;20021;-72
2022/02/21 01:13:01;;;;;;;14.23;9.27;;;;;;;6.22;67.07;98274.25;5019517;28;20041;-73
2022/02/21 01:15:27;;;;;;;13.75;8.85;;;;;;;6.22;67.51;98259.56;5037010;28;20118;-75
2022/02/21 01:17:52;;;;;;;14.65;9.48;;;;;;;6.19;68.83;98248.66;5009065;28;20128;-73
2022/02/21 01:20:18;;;;;;;15.30;8.80;;;;;;;5.95;69.20;98198.94;5013591;28;20021;-70
2022/02/21 01:22:43;;;;;;;12.13;8.88;;;;;;;6.23;68.92;98240.56;5036687;28;20021;-74
2022/02/21 01:25:09;;;;;;;14.15;8.85;;;;;;;6.31;68.75;98238.16;5020241;28;20254;-72
2022/02/21 01:27:35;;;;;;;18.10;9.57;;;;;;;5.98;68.67;98179.78;5032208;28;20013;-72
2022/02/21 01:30:00;;;;;;;11.60;8.15;;;;;;;6.22;68.85;98213.09;5017948;28;20025;-71
2022/02/21 01:32:26;;;;;;;14.63;8.93;;;;;;;5.63;69.44;98110.44;4974347;28;20356;-76
2022/02/21 01:34:51;;;;;;;14.20;9.35;;;;;;;6.11;69.17;98189.94;5019976;28;20095;-75
2022/02/21 01:37:17;;;;;;;14.90;9.13;;;;;;;6.19;68.13;98187.53;5020431;28;20040;-71
2022/02/21 01:39:42;;;;;;;13.38;8.82;;;;;;;6.22;68.44;98187.25;5018434;28;20770;-73
2022/02/21 01:42:08;;;;;;;12.75;8.32;;;;;;;6.24;68.20;98193.16;5019857;28;20037;-73
2022/02/21 01:44:43;;;;;;;15.35;9.45;;;;;;;6.27;67.93;98220.47;5015382;28;20044;-73
2022/02/21 01:47:10;;;;;;;13.55;8.77;;;;;;;5.97;68.47;98215.13;5012760;28;20036;-75
2022/02/21 01:49:36;;;;;;;12.45;8.15;;;;;;;6.04;68.41;98215.44;5008571;28;20037;-76
2022/02/21 01:52:03;;;;;;;12.95;8.38;;;;;;;6.14;68.58;98229.22;5019629;28;20131;-73
2022/02/21 01:54:29;;;;;;;14.52;9.10;;;;;;;5.79;69.51;98203.69;5006595;28;20396;-75
2022/02/21 01:56:55;;;;;;;14.35;9.70;;;;;;;5.99;69.18;98201.25;5035306;28;20030;-73
2022/02/21 01:59:20;;;;;;;17.23;10.02;;;;;;;6.02;69.27;98188.09;5032653;28;20246;-76
2022/02/21 02:01:46;;;;;;;13.77;9.35;;;;;;;5.76;69.84;98196.19;5020113;28;20029;-73
2022/02/21 02:04:12;;;;;;;15.35;9.63;;;;;;;5.58;70.00;98194.16;5012276;28;21096;-75
2022/02/21 02:06:37;;;;;;;14.82;9.20;;;;;;;5.55;69.22;98178.91;5038213;28;20025;-72
2022/02/21 02:09:03;;;;;;;13.40;8.45;;;;;;;5.61;68.14;98164.72;5022262;28;20029;-75
2022/02/21 02:11:32;;;;;;;13.82;8.35;;;;;;;5.45;67.33;98110.97;5023784;28;20033;-78
2022/02/21 02:13:57;;;;;;;12.63;8.32;;;;;;;5.75;69.11;98161.84;5024398;28;20131;-74
2022/02/21 02:16:23;;;;;;;13.18;8.75;;;;;;;5.83;69.07;98162.97;5037643;28;20414;-73
2022/02/21 02:18:48;;;;;;;14.23;8.52;;;;;;;5.86;68.91;98166.13;5037044;28;20068;-69
2022/02/21 02:21:22;;;;;;;15.18;8.70;;;;;;;5.65;70.16;98162.69;5007542;28;20113;-77
2022/02/21 02:23:48;;;;;;;15.65;9.23;;;;;;;5.39;71.03;98122.59;5041152;28;20026;-77
2022/02/21 02:26:16;;;;;;;13.95;9.48;;;;;;;5.67;71.44;98153.88;5020427;28;20037;-77
2022/02/21 02:28:41;;;;;;;13.43;9.18;;;;;;;5.76;73.75;98152.31;5041396;28;20028;-77
2022/02/21 02:31:07;;;;;;;13.52;9.10;;;;;;;5.67;75.52;98135.00;5019606;28;20032;-77
2022/02/21 02:33:33;;;;;;;14.68;9.40;;;;;;;5.63;75.90;98118.16;5040822;28;20028;-75
2022/02/21 02:36:00;;;;;;;14.88;9.25;;;;;;;5.73;75.70;98106.97;5005306;28;20033;-77
2022/02/21 02:38:25;;;;;;;14.18;9.40;;;;;;;5.70;76.22;98088.34;5037133;28;20029;-76
2022/02/21 02:40:51;;;;;;;14.10;8.75;;;;;;;5.71;76.29;98085.63;5024129;28;20082;-76
2022/02/21 02:43:16;;;;;;;14.88;9.77;;;;;;;5.68;76.41;98090.25;5022926;28;20135;-77
2022/02/21 02:45:45;;;;;;;12.52;9.30;;;;;;;5.57;75.86;98080.81;5018026;28;20040;-78
2022/02/21 02:48:11;;;;;;;13.93;8.13;;;;;;;5.58;73.37;98062.63;5039414;28;20049;-78
2022/02/21 02:50:38;;;;;;;13.57;8.38;;;;;;;5.91;69.95;98085.72;5023226;28;20337;-73
2022/02/21 02:53:03;;;;;;;10.95;6.82;;;;;;;5.98;68.85;98097.22;5023899;28;20053;-74
2022/02/21 02:55:28;;;;;;;12.35;8.27;;;;;;;5.85;73.03;98094.81;5036011;28;20067;-75
2022/02/21 02:57:54;;;;;;;15.05;9.10;;;;;;;5.90;76.88;98099.59;5041006;28;20035;-75
2022/02/21 03:00:19;;;;;;;13.88;9.45;;;;;;;5.83;77.95;98095.88;5037945;28;20020;-78
2022/02/21 03:02:45;;;;;;;14.88;9.02;;;;;;;5.45;77.47;98043.13;5040487;28;20456;-75
2022/02/21 03:05:10;;;;;;;13.45;8.70;;;;;;;5.61;77.30;98028.00;5023367;28;20120;-72
2022/02/21 03:07:35;;;;;;;15.15;9.60;;;;;;;5.90;77.83;98038.47;4990206;28;20132;-78
2022/02/21 03:10:01;;;;;;;13.48;8.80;;;;;;;5.99;77.36;98036.91;5022415;28;20032;-77
2022/02/21 03:12:27;;;;;;;14.10;9.60;;;;;;;6.01;76.51;98027.28;5040145;28;20207;-78
2022/02/21 03:14:52;;;;;;;12.77;8.63;;;;;;;5.95;76.62;98040.66;5021152;28;20424;-72
2022/02/21 03:17:18;;;;;;;14.55;8.90;;;;;;;5.79;76.95;98056.63;5020807;28;20388;-72
2022/02/21 03:19:43;;;;;;;13.45;9.57;;;;;;;5.80;76.96;98065.16;5038456;28;20033;-74
2022/02/21 03:22:08;;;;;;;14.00;9.18;;;;;;;5.87;76.47;98058.56;5018536;28;20044;-72
2022/02/21 03:24:34;;;;;;;12.80;8.70;;;;;;;5.85;75.89;98063.84;4980169;28;20029;-74
2022/02/21 03:26:59;;;;;;;12.00;8.25;;;;;;;5.85;75.92;98053.53;5019495;28;20021;-79
2022/02/21 03:29:25;;;;;;;13.23;8.23;;;;;;;5.85;75.13;98044.97;5021151;28;20029;-76
2022/02/21 03:31:50;;;;;;;12.63;8.52;;;;;;;5.95;75.98;98043.22;5024748;28;20032;-76
2022/02/21 03:34:15;;;;;;;13.57;8.25;;;;;;;6.00;75.91;98015.31;5045422;28;20037;-76
2022/02/21 03:36:41;;;;;;;14.02;8.85;;;;;;;6.05;75.71;98007.19;5043512;28;20324;-78
2022/02/21 03:39:06;;;;;;;13.82;9.15;;;;;;;6.13;75.71;97991.84;5034000;28;20025;-77
2022/02/21 03:41:34;;;;;;;16.35;9.27;;;;;;;6.20;75.82;97992.16;5027467;28;20017;-77
2022/02/21 03:44:01;;;;;;;14.60;9.65;;;;;;;6.18;75.02;97989.69;5025393;28;20036;-79
2022/02/21 03:46:27;;;;;;;15.15;9.43;;;;;;;6.02;75.47;97987.59;5025751;28;20762;-78
2022/02/21 03:48:53;;;;;;;12.60;8.90;;;;;;;6.12;74.23;97975.56;5044909;28;20551;-75
2022/02/21 03:51:18;;;;;;;13.20;8.85;;;;;;;6.09;73.86;97960.31;5041227;28;20029;-74
2022/02/21 03:53:43;;;;;;;14.45;8.82;;;;;;;6.05;73.91;97966.69;5024181;28;20060;-69
2022/02/21 03:56:09;;;;;;;12.10;8.10;;;;;;;6.05;74.92;97969.28;5015901;28;20032;-77
2022/02/21 03:58:34;;;;;;;14.95;9.07;;;;;;;6.15;74.31;97974.47;5028940;28;20029;-78
2022/02/21 04:01:00;;;;;;;14.55;9.18;;;;;;;6.21;73.87;97953.28;5024212;28;20395;-74
2022/02/21 04:03:25;;;;;;;14.85;9.18;;;;;;;6.11;73.20;97942.13;5044205;28;20081;-77
2022/02/21 04:05:51;;;;;;;13.18;8.90;;;;;;;6.31;73.58;97977.34;5024641;28;20048;-77
2022/02/21 04:08:16;;;;;;;14.70;9.30;;;;;;;6.21;73.43;97993.78;5041947;28;20056;-75
2022/02/21 04:10:42;;;;;;;13.15;8.68;;;;;;;6.18;74.50;97996.63;5018410;28;20120;-74
2022/02/21 04:13:07;;;;;;;14.85;9.13;;;;;;;6.14;77.38;97993.50;5041852;28;20122;-78
2022/02/21 04:15:33;;;;;;;12.45;9.05;;;;;;;6.12;77.87;97996.19;5026290;28;20524;-74
2022/02/21 04:17:58;;;;;;;13.18;9.13;;;;;;;6.18;77.87;97992.28;5022522;28;20021;-76
2022/02/21 04:20:26;;;;;;;15.55;9.60;;;;;;;6.20;78.64;97974.88;5026146;28;20130;-76
2022/02/21 04:22:51;;;;;;;12.43;8.90;;;;;;;6.19;78.92;97964.69;5028363;28;20036;-77
2022/02/21 04:25:17;;;;;;;15.75;10.15;;;;;;;6.13;77.34;97925.56;5040996;28;20033;-73
2022/02/21 04:27:45;;;;;;;13.00;8.85;;;;;;;6.39;77.92;97963.78;5016273;28;20716;-76
2022/02/21 04:30:15;;;;;;;14.45;9.82;;;;;;;6.24;78.05;97947.88;5043656;28;20052;-76
2022/02/21 04:32:43;;;;;;;14.57;9.25;;;;;;;6.23;78.42;97955.75;5023056;28;20033;-78
2022/02/21 04:35:09;;;;;;;16.17;10.43;;;;;;;6.10;78.08;97956.00;5023789;28;20025;-75
2022/02/21 04:37:36;;;;;;;13.07;8.98;;;;;;;5.89;77.87;97956.84;5044462;28;20029;-76
2022/02/21 04:40:06;;;;;;;14.98;9.80;;;;;;;5.89;78.46;97954.25;5025254;28;20029;-75
2022/02/21 04:42:31;;;;;;;13.27;9.00;;;;;;;6.00;78.83;97952.56;5035870;28;20383;-74
2022/02/21 04:44:57;;;;;;;15.27;9.68;;;;;;;6.03;79.38;97945.38;5023164;28;20028;-69
2022/02/21 04:47:22;;;;;;;14.52;9.57;;;;;;;6.11;79.06;97934.38;5022505;28;20597;-71
2022/02/21 04:49:48;;;;;;;13.07;9.05;;;;;;;6.22;79.42;97930.88;5042931;28;20057;-71
2022/02/21 04:52:13;;;;;;;13.25;9.35;;;;;;;6.15;79.20;97908.19;5042744;28;20029;-75
2022/02/21 04:54:39;;;;;;;13.20;9.40;;;;;;;6.22;79.11;97917.97;5044064;28;20040;-75
2022/02/21 04:57:04;;;;;;;14.20;9.35;;;;;;;6.32;79.33;97917.03;5010654;28;20040;-65
2022/02/21 04:59:30;;;;;;;14.50;9.23;;;;;;;6.20;77.42;97905.19;5038647;28;20036;-78
2022/02/21 05:01:55;;;;;;;13.13;9.45;;;;;;;6.22;77.23;97905.06;5043269;28;20040;-78
2022/02/21 05:04:21;;;;;;;12.77;9.15;;;;;;;6.24;77.18;97906.56;5024568;28;20044;-78
2022/02/21 05:06:46;;;;;;;14.27;9.68;;;;;;;6.16;77.79;97896.09;5023374;28;20120;-74
2022/02/21 05:09:12;;;;;;;15.25;9.57;;;;;;;6.15;77.04;97899.59;5038952;28;20037;-78
2022/02/21 05:11:37;;;;;;;13.45;9.45;;;;;;;6.13;76.58;97896.34;5039001;28;20056;-77
2022/02/21 05:14:02;;;;;;;15.13;10.70;;;;;;;6.26;76.82;97889.19;5034468;28;20716;-74
2022/02/21 05:16:28;;;;;;;13.77;9.48;;;;;;;5.74;75.34;97801.59;5040897;28;20099;-74
2022/02/21 05:18:53;;;;;;;14.43;9.57;;;;;;;6.34;77.26;97901.41;5025653;28;20112;-75
2022/02/21 05:21:18;;;;;;;13.43;9.63;;;;;;;6.30;76.80;97895.69;5030367;28;20033;-74
2022/02/21 05:23:44;;;;;;;12.65;9.85;;;;;;;6.41;76.34;97892.16;5024432;28;20112;-74
2022/02/21 05:26:09;;;;;;;14.88;9.65;;;;;;;6.36;76.27;97884.00;5025544;28;20029;-74
2022/02/21 05:28:35;;;;;;;17.60;10.15;;;;;;;6.44;76.46;97866.03;5034071;28;20041;-74
2022/02/21 05:31:00;;;;;;;15.63;9.93;;;;;;;6.51;76.48;97859.38;5042514;28;20464;-74
2022/02/21 05:33:26;;;;;;;14.48;9.63;;;;;;;6.20;76.99;97795.94;5024992;28;20506;-75
2022/02/21 05:35:51;;;;;;;14.70;9.90;;;;;;;6.47;76.82;97832.22;5020574;28;20032;-69
2022/02/21 05:38:17;;;;;;;15.02;9.60;;;;;;;6.45;75.73;97820.41;5041151;28;20523;-78
2022/02/21 05:40:42;;;;;;;13.73;9.55;;;;;;;6.38;75.56;97819.31;5019090;28;20033;-74
2022/02/21 05:43:07;;;;;;;12.88;9.40;;;;;;;6.44;76.33;97822.16;5023337;28;20091;-78
2022/02/21 05:45:33;;;;;;;14.90;9.43;;;;;;;6.33;75.15;97827.47;5027658;28;20032;-73
2022/02/21 05:47:58;;;;;;;15.68;10.95;;;;;;;6.39;75.52;97815.75;5022072;28;20391;-74
2022/02/21 05:50:24;;;;;;;13.90;9.55;;;;;;;6.34;75.85;97814.41;5025892;28;20032;-74
2022/02/21 05:52:49;;;;;;;13.07;9.73;;;;;;;6.30;75.29;97818.25;5025475;28;20025;-77
2022/02/21 05:55:14;;;;;;;13.23;9.70;;;;;;;6.20;76.39;97829.50;5038002;28;20452;-75
2022/02/21 05:57:40;;;;;;;15.25;9.85;;;;;;;6.04;77.49;97805.06;5038860;28;20052;-78
2022/02/21 06:00:07;;;;;;;13.23;9.48;;;;;;;6.14;78.20;97800.72;5012453;28;20534;-76
2022/02/21 06:02:33;;;;;;;19.15;10.90;;;;;;;6.04;79.25;97807.66;5019692;28;20489;-75
2022/02/21 06:04:59;;;;;;;14.98;10.48;;;;;;;6.06;79.84;97815.22;5023477;28;20034;-76
2022/02/21 06:07:24;;;;;;;16.10;10.55;;;;;;;5.68;80.99;97765.22;5038633;28;20764;-76
2022/02/21 06:09:50;;;;;;;15.38;11.02;;;;;;;6.05;80.34;97804.09;5024819;28;20838;-78
2022/02/21 06:12:15;;;;;;;13.55;9.75;;;;;;;6.17;80.24;97799.63;5021238;28;20033;-71
2022/02/21 06:14:40;;;;;;;14.20;9.90;;;;;;;6.09;80.44;97771.09;5012093;28;20570;-76
2022/02/21 06:17:06;;;;;;;13.20;9.70;;;;;;;6.19;80.34;97794.31;5013594;28;20047;-76
2022/02/21 06:19:31;;;;;;;13.30;9.52;;;;;;;6.18;81.05;97792.69;5022178;28;20120;-71
2022/02/21 06:21:57;;;;;;;14.13;10.15;;;;;;;5.82;81.47;97733.84;5021243;28;20147;-76
2022/02/21 06:24:24;;;;;;;14.20;10.35;;;;;;;6.11;81.76;97797.59;5039366;28;20462;-77
2022/02/21 06:26:50;;;;;;;14.13;10.88;;;;;;;6.24;80.63;97800.72;5040124;28;20032;-75
2022/02/21 06:29:15;;;;;;;16.27;10.00;;;;;;;6.24;79.30;97797.31;5039029;28;20024;-77
2022/02/21 06:31:41;;;;;;;13.32;9.77;;;;;;;6.22;79.44;97799.22;5039713;28;20036;-70
2022/02/21 06:34:07;;;;;;;14.75;9.68;;;;;;;6.16;78.46;97787.66;5023336;28;20025;-72
2022/02/21 06:36:33;;;;;;;14.43;10.27;;;;;;;6.20;77.77;97778.69;5018329;28;20456;-75
2022/02/21 06:38:59;;;;;;;13.93;9.35;;;;;;;5.87;79.06;97728.28;5033222;28;20447;-70
2022/02/21 06:41:24;;;;;;;13.88;9.48;;;;;;;6.24;79.03;97787.81;5024661;28;20035;-72
2022/02/21 06:43:50;;;;;;;13.23;9.40;;;;;;;6.20;79.62;97780.47;5030794;28;20120;-77
2022/02/21 06:46:15;;;;;;;13.40;9.07;;;;;;;6.21;80.01;97769.19;5031942;28;20083;-73
2022/02/21 06:48:41;;;;;;;12.93;9.00;;;;;;;6.26;80.84;97777.31;5032268;28;20041;-74
2022/02/21 06:51:06;;;;;;;13.57;8.50;;;;;;;6.31;79.94;97772.56;5015430;28;20029;-75
2022/02/21 06:53:32;;;;;;;12.70;9.35;;;;;;;6.23;80.19;97742.28;5042111;28;20440;-77
2022/02/21 06:55:57;;;;;;;14.18;9.38;;;;;;;5.93;80.75;97701.94;5017432;28;20468;-74
2022/02/21 06:58:23;;;;;;;14.55;9.27;;;;;;;6.25;80.32;97735.22;5018496;28;21163;-65
2022/02/21 07:00:48;;;;;;;12.82;8.48;;;;;;;6.18;81.16;97726.38;4994337;28;20036;-69
2022/02/21 07:03:14;;;;;;;13.20;8.73;;;;;;;6.26;80.13;97715.38;5038385;28;20035;-74
2022/02/21 07:05:39;;;;;;;13.18;8.70;;;;;;;6.35;79.24;97719.69;5037316;28;20037;-74
2022/02/21 07:08:06;;;;;;;11.77;8.52;;;;;;;5.85;80.34;97656.19;5037329;28;20098;-75
2022/02/21 07:10:31;;;;;;;12.40;8.65;;;;;;;6.15;80.45;97699.09;5023084;28;20022;-71
2022/02/21 07:12:57;;;;;;;14.25;8.55;;;;;;;6.37;80.02;97691.16;5039441;28;20098;-76
2022/02/21 07:15:22;;;;;;;13.40;8.80;;;;;;;6.24;80.99;97683.72;5023440;28;20508;-74
2022/02/21 07:17:48;;;;;;;12.93;9.05;;;;;;;5.91;80.29;97649.66;5035985;28;20796;-73
2022/02/21 07:20:15;;;;;;;12.13;8.85;;;;;;;6.23;81.32;97707.91;5039477;28;20467;-78
2022/02/21 07:22:41;;;;;;;11.55;8.32;;;;;;;5.92;80.78;97659.84;5014557;28;20111;-76
2022/02/21 07:25:09;;;;;;;14.55;9.13;;;;;;;6.13;82.53;97682.09;5037354;28;20108;-75
2022/02/21 07:27:51;;;;;;;13.85;9.30;;;;;;;6.09;83.33;97684.16;5041925;28;20060;-71
2022/02/21 07:30:18;;;;;;;13.43;8.60;;;;;;;5.90;82.77;97633.38;5014913;28;20127;-73
2022/02/21 07:32:44;;;;;;;14.95;8.98;;;;;;;6.27;83.09;97686.03;5023387;28;20836;-74
2022/02/21 07:35:10;;;;;;;13.43;10.05;;;;;;;6.19;83.08;97673.81;5017902;28;20021;-74
2022/02/21 07:37:39;;;;;;;12.77;9.10;;;;;;;6.03;83.96;97633.09;5020084;28;20033;-77
2022/02/21 07:40:05;;;;;;;15.25;9.25;;;;;;;6.39;83.25;97663.41;5035828;28;20030;-74
2022/02/21 07:42:30;;;;;;;11.88;8.75;;;;;;;6.46;83.34;97656.72;5028664;28;20025;-70
2022/02/21 07:44:56;;;;;;;13.50;8.75;;;;;;;6.31;82.16;97628.78;5036539;28;20653;-77
2022/02/21 07:47:21;;;;;;;12.85;8.60;;;;;;;6.59;81.57;97675.31;5019567;28;20048;-73
2022/02/21 07:49:47;;;;;;;13.80;8.60;;;;;;;6.35;80.86;97626.75;5016374;28;20068;-75
2022/02/21 07:52:12;;;;;;;13.23;8.73;;;;;;;6.73;79.26;97680.03;5016362;28;20072;-75
2022/02/21 07:54:37;;;;;;;13.35;9.07;;;;;;;6.84;79.33;97671.25;5033949;28;20111;-75
2022/02/21 07:57:06;;;;;;;14.32;9.02;;;;;;;6.86;78.58;97674.53;5018856;28;20060;-70
2022/02/21 07:59:31;;;;;;;16.98;8.85;;;;;;;6.74;79.30;97671.31;5028228;28;20029;-72
2022/02/21 08:01:57;;;;;;;12.63;8.52;;;;;;;6.64;79.94;97677.47;5032735;28;20577;-74
2022/02/21 08:04:22;;;;;;;12.35;8.38;;;;;;;6.71;79.29;97684.50;5006623;28;20039;-77
2022/02/21 08:06:48;;;;;;;10.15;7.20;;;;;;;6.50;77.25;97658.91;5029396;28;20454;-72
2022/02/21 08:09:13;;;;;;;10.27;6.93;;;;;;;6.54;75.94;97654.28;5006110;28;20419;-77
2022/02/21 08:11:39;;;;;;;11.10;6.85;;;;;;;6.52;75.73;97631.16;5031809;28;20642;-75
2022/02/21 08:14:05;;;;;;;10.73;7.07;;;;;;;6.71;76.33;97650.09;5012800;28;20021;-73
2022/02/21 08:16:31;;;;;;;11.00;6.78;;;;;;;6.75;76.11;97646.28;5033461;28;20029;-75
2022/02/21 08:18:56;;;;;;;13.23;7.00;;;;;;;6.74;75.49;97645.47;5036005;28;20029;-74
2022/02/21 08:21:21;;;;;;;14.30;7.15;;;;;;;6.80;74.62;97641.50;5037297;28;20099;-74
2022/02/21 08:23:47;;;;;;;13.80;7.25;;;;;;;6.97;74.23;97639.09;5015224;28;20037;-76
2022/02/21 08:26:12;;;;;;;11.07;7.07;;;;;;;7.01;73.42;97610.22;5029836;28;20045;-72
2022/02/21 08:28:38;;;;;;;11.57;7.43;;;;;;;7.04;73.79;97630.59;5019035;28;20017;-74
2022/02/21 08:31:03;;;;;;;13.13;7.25;;;;;;;7.03;73.25;97623.00;5016886;28;20160;-75
2022/02/21 08:33:29;;;;;;;12.10;7.35;;;;;;;6.98;72.85;97613.09;5015437;28;20392;-72
2022/02/21 08:35:54;;;;;;;11.90;7.70;;;;;;;6.91;74.42;97627.56;5018550;28;20037;-75
2022/02/21 08:38:19;;;;;;;12.27;7.32;;;;;;;6.63;79.30;97619.84;5039090;28;20543;-73
2022/02/21 08:40:45;;;;;;;12.40;7.95;;;;;;;6.54;79.24;97595.66;5010283;28;20028;-73
2022/02/21 08:43:11;;;;;;;10.93;7.32;;;;;;;6.58;76.08;97575.53;5023424;28;20029;-73
2022/02/21 08:45:36;;;;;;;10.95;7.30;;;;;;;6.72;74.28;97574.25;5037685;28;20483;-73
2022/02/21 08:48:02;;;;;;;11.52;7.45;;;;;;;6.81;74.26;97567.38;5020206;28;20427;-75
2022/02/21 08:50:27;;;;;;;10.93;6.97;;;;;;;6.91;74.70;97578.47;5019484;28;20439;-73
2022/02/21 08:52:53;;;;;;;12.48;7.90;;;;;;;7.03;74.06;97579.06;5038755;28;20040;-73
2022/02/21 08:55:18;;;;;;;12.77;7.40;;;;;;;7.04;73.29;97596.19;5021439;28;20922;-77
2022/02/21 08:57:45;;;;;;;15.98;8.15;;;;;;;7.11;71.94;97610.16;5009772;28;20253;-74
2022/02/21 09:00:12;;;;;;;12.75;8.48;;;;;;;7.20;71.66;97621.38;5027172;28;20052;-76
2022/02/21 09:02:37;;;;;;;12.60;7.95;;;;;;;7.18;69.67;97636.25;5018993;28;20883;-75
2022/02/21 09:05:04;;;;;;;12.30;7.82;;;;;;;7.20;70.96;97634.31;5017673;28;20025;-74
2022/02/21 09:07:29;;;;;;;11.23;7.03;;;;;;;7.12;70.80;97635.06;5016847;28;20480;-74
2022/02/21 09:09:55;;;;;;;13.35;7.78;;;;;;;7.13;72.52;97641.84;5026443;28;20032;-72
2022/02/21 09:12:21;;;;;;;11.20;7.28;;;;;;;6.91;74.44;97640.47;5020565;28;20868;-75
2022/02/21 09:14:47;;;;;;;10.48;7.13;;;;;;;7.03;71.83;97657.41;5013765;28;20040;-70
2022/02/21 09:17:17;;;;;;;12.90;6.72;;;;;;;7.22;71.74;97660.84;5015622;28;21208;-75
2022/02/21 09:19:44;;;;;;;;;;;;;;;7.31;70.81;97653.00;5016375;28;20071;-70
2022/02/21 09:22:11;;;;;;;11.63;7.10;;;;;;;7.46;68.19;97642.13;5037466;28;20011;-76
2022/02/21 09:24:36;;;;;;;12.80;7.63;;;;;;;7.53;70.27;97627.66;5026151;28;20071;-77
2022/02/21 09:27:02;;;;;;;13.80;7.20;;;;;;;7.59;68.89;97632.22;5019315;28;20360;-76
2022/02/21 09:29:27;;;;;;;15.88;7.30;;;;;;;7.59;68.21;97657.28;4976367;28;20044;-66
2022/02/21 09:31:55;;;;;;;11.95;7.07;;;;;;;7.50;68.79;97659.81;5020719;28;20058;-71
2022/02/21 09:34:20;;;;;;;9.98;6.63;;;;;;;7.51;69.14;97664.00;5022802;28;20037;-77
2022/02/21 09:36:46;;;;;;;11.63;6.55;;;;;;;7.61;67.33;97676.06;5036319;28;20391;-75
2022/02/21 09:39:11;;;;;;;12.52;6.32;;;;;;;7.44;66.12;97685.44;5017033;28;21787;-68
2022/02/21 09:41:37;;;;;;;11.95;6.28;;;;;;;7.31;66.77;97681.44;5023261;28;20028;-78
2022/02/21 09:44:03;;;;;;;11.27;5.80;;;;;;;7.30;66.05;97672.06;5025575;28;20029;-77
2022/02/21 09:46:30;;;;;;;13.75;7.00;;;;;;;7.38;66.50;97679.09;5009112;28;20739;-74
2022/02/21 09:49:00;;;;;;;10.45;6.00;;;;;;;7.53;64.98;97665.66;5014590;28;20045;-75
2022/02/21 09:51:26;;;;;;;10.30;6.47;;;;;;;7.67;64.82;97670.31;5020386;28;20130;-76
2022/02/21 09:53:51;;;;;;;10.93;6.50;;;;;;;7.81;64.75;97687.88;5024968;28;20025;-77
2022/02/21 09:56:17;;;;;;;11.95;6.63;;;;;;;7.98;66.60;97681.06;5021207;28;20131;-77
2022/02/21 09:58:43;;;;;;;13.20;7.57;;;;;;;7.91;67.28;97651.56;5024027;28;20040;-75
2022/02/21 10:01:08;;;;;;;12.25;6.63;;;;;;;8.06;66.70;97641.44;4970339;28;20709;-73
2022/02/21 10:03:36;;;;;;;12.80;5.32;;;;;;;8.14;65.64;97589.72;5038855;28;20032;-73
2022/02/21 10:06:24;;;;;;;11.77;5.32;;;;;;;8.78;63.62;97652.38;5035069;28;20037;-76
2022/02/21 10:08:56;;;;;;;9.50;4.90;;;;;;;8.94;62.63;97643.81;5014107;28;20021;-74
2022/02/21 10:11:28;;;;;;;9.63;4.88;;;;;;;9.03;61.66;97650.69;5020293;28;20052;-73
2022/02/21 10:14:08;;;;;;;10.32;5.20;;;;;;;9.10;60.96;97642.25;5037405;28;20029;-74
2022/02/21 10:16:46;;;;;;;12.45;4.72;;;;;;;9.17;61.41;97617.31;4999239;28;20565;-69
2022/02/21 10:19:17;;;;;;;7.60;4.00;;;;;;;9.21;61.68;97629.78;5038996;28;20124;-75
2022/02/21 10:22:05;;;;;;;7.55;3.50;;;;;;;9.47;61.22;97615.84;5014107;28;20049;-73
2022/02/21 10:24:41;;;;;;;7.22;2.92;;;;;;;9.59;60.17;97606.78;5037005;28;20387;-76
2022/02/21 10:27:09;;;;;;;4.72;1.92;;;;;;;9.67;61.76;97592.19;5035149;28;20147;-73
2022/02/21 10:29:37;;;;;;;7.32;1.80;;;;;;;9.79;61.43;97612.44;5037605;28;20120;-76
2022/02/21 10:32:09;;;;;;;4.13;1.27;;;;;;;9.99;59.08;97605.09;5018416;28;20033;-65
2022/02/21 10:34:36;;;;;;;3.85;1.20;;;;;;;9.92;59.65;97606.75;5036331;28;20032;-76
2022/02/21 10:37:04;;;;;;;3.25;1.17;;;;;;;9.88;59.56;97604.66;5037331;28;20208;-76
2022/02/21 10:39:31;;;;;;;4.63;1.33;;;;;;;9.95;58.35;97577.84;5024262;28;20051;-70
2022/02/21 10:41:57;;;;;;;3.70;1.10;;;;;;;10.18;54.94;97580.56;5022883;28;20082;-76
2022/02/21 10:44:31;;;;;;;1.98;0.80;;;;;;;10.28;51.60;97571.78;5039486;28;20734;-74
2022/02/21 10:47:05;;;;;;;2.20;0.60;;;;;;;10.18;51.02;97536.41;5040944;28;20527;-74
2022/02/21 10:49:34;;;;;;;3.33;0.90;;;;;;;10.18;57.21;97572.78;5033277;28;20104;-76
2022/02/21 10:52:00;;;;;;;3.00;0.90;;;;;;;9.99;55.65;97570.56;5024371;28;20021;-78
2022/02/21 10:54:29;;;;;;;2.63;0.77;;;;;;;10.29;52.71;97543.00;5021393;28;20491;-73
2022/02/21 10:56:54;;;;;;;2.08;0.60;;;;;;;10.71;45.86;97559.25;5039974;28;20029;-73
2022/02/21 10:59:28;;;;;;;2.28;0.80;;;;;;;10.68;49.17;97549.19;5011563;28;20094;-75
2022/02/21 11:01:53;;;;;;;1.63;0.40;;;;;;;10.83;45.92;97549.28;5037483;28;20017;-76
2022/02/21 11:04:19;;;;;;;0.80;0.40;;;;;;;11.26;39.17;97557.41;5020669;28;20380;-70
2022/02/21 11:06:45;;;;;;;1.10;0.40;;;;;;;11.85;34.54;97567.97;5025507;28;20358;-75
2022/02/21 11:09:12;;;;;;;1.65;0.30;;;;;;;11.96;35.48;97569.34;5020921;28;20029;-71
2022/02/21 11:11:45;;;;;;;4.22;0.50;;;;;;;12.24;32.43;97558.28;5028481;28;20514;-76
2022/02/21 11:14:14;;;;;;;2.72;0.52;;;;;;;12.46;31.92;97567.78;5035747;28;20056;-71
2022/02/21 11:16:40;;;;;;;0.82;0.30;;;;;;;12.58;29.41;97562.13;5031801;28;20024;-73
2022/02/21 11:19:06;;;;;;;1.35;0.20;;;;;;;12.65;27.96;97591.69;5013842;28;20021;-73
2022/02/21 11:21:34;;;;;;;4.25;0.73;;;;;;;12.79;25.08;97545.69;5016720;28;20384;-75
2022/02/21 11:24:01;;;;;;;0.88;0.20;;;;;;;12.75;26.92;97550.47;5023126;28;20494;-70
2022/02/21 11:26:28;;;;;;;1.40;0.50;;;;;;;12.75;26.32;97560.91;5033125;28;20170;-74
2022/02/21 11:29:06;;;;;;;1.60;0.40;;;;;;;12.81;26.40;97559.34;5034859;28;20037;-68